sensor_id;sensor_type;location;lat;lon;timestamp;temperature;humidity
66594;DHT22;53450;42.584;23.366;2023-02-11T00:00:57;-7.95;73.39
66594;DHT22;53450;42.584;23.366;2023-02-11T00:03:22;-7.97;73.36
66594;DHT22;53450;42.584;23.366;2023-02-11T00:06:02;-8.05;73.79
66594;DHT22;53450;42.584;23.366;2023-02-11T00:08:53;-7.97;74.09
66594;DHT22;53450;42.584;23.366;2023-02-11T00:11:22;-7.97;73.10
66594;DHT22;53450;42.584;23.366;2023-02-11T00:13:50;-8.14;73.56
66594;DHT22;53450;42.584;23.366;2023-02-11T00:16:18;-8.18;73.81
66594;DHT22;53450;42.584;23.366;2023-02-11T00:18:44;-8.23;74.00
66594;DHT22;53450;42.584;23.366;2023-02-11T00:21:18;-8.26;74.33
66594;DHT22;53450;42.584;23.366;2023-02-11T00:23:45;-8.26;74.43
66594;DHT22;53450;42.584;23.366;2023-02-11T00:26:19;-8.34;74.56
66594;DHT22;53450;42.584;23.366;2023-02-11T00:28:46;-8.33;74.37
66594;DHT22;53450;42.584;23.366;2023-02-11T00:31:37;-8.36;74.27
66594;DHT22;53450;42.584;23.366;2023-02-11T00:34:04;-8.41;74.41
66594;DHT22;53450;42.584;23.366;2023-02-11T00:36:30;-8.42;74.65
66594;DHT22;53450;42.584;23.366;2023-02-11T00:38:56;-8.44;74.74
66594;DHT22;53450;42.584;23.366;2023-02-11T00:41:22;-8.51;75.00
66594;DHT22;53450;42.584;23.366;2023-02-11T00:43:48;-8.51;75.14
66594;DHT22;53450;42.584;23.366;2023-02-11T00:46:14;-8.51;75.11
66594;DHT22;53450;42.584;23.366;2023-02-11T00:48:40;-8.55;75.11
66594;DHT22;53450;42.584;23.366;2023-02-11T00:51:06;-8.49;75.13
66594;DHT22;53450;42.584;23.366;2023-02-11T00:53:32;-8.58;75.21
66594;DHT22;53450;42.584;23.366;2023-02-11T00:55:58;-8.54;75.51
66594;DHT22;53450;42.584;23.366;2023-02-11T00:58:25;-8.48;76.08
66594;DHT22;53450;42.584;23.366;2023-02-11T01:00:53;-8.38;74.51
66594;DHT22;53450;42.584;23.366;2023-02-11T01:03:19;-8.52;74.48
66594;DHT22;53450;42.584;23.366;2023-02-11T01:05:44;-8.69;75.08
66594;DHT22;53450;42.584;23.366;2023-02-11T01:08:11;-8.71;75.47
66594;DHT22;53450;42.584;23.366;2023-02-11T01:10:37;-8.82;76.12
66594;DHT22;53450;42.584;23.366;2023-02-11T01:13:02;-8.81;76.48
66594;DHT22;53450;42.584;23.366;2023-02-11T01:15:28;-8.84;76.17
66594;DHT22;53450;42.584;23.366;2023-02-11T01:18:19;-8.84;76.75
66594;DHT22;53450;42.584;23.366;2023-02-11T01:20:47;-8.81;76.60
66594;DHT22;53450;42.584;23.366;2023-02-11T01:23:13;-8.76;75.79
66594;DHT22;53450;42.584;23.366;2023-02-11T01:25:38;-8.78;75.75
66594;DHT22;53450;42.584;23.366;2023-02-11T01:28:04;-8.81;75.93
66594;DHT22;53450;42.584;23.366;2023-02-11T01:30:30;-8.96;76.02
66594;DHT22;53450;42.584;23.366;2023-02-11T01:33:22;-9.02;76.66
66594;DHT22;53450;42.584;23.366;2023-02-11T01:36:13;-9.06;77.00
66594;DHT22;53450;42.584;23.366;2023-02-11T01:38:38;-9.05;76.17
66594;DHT22;53450;42.584;23.366;2023-02-11T01:41:08;-9.12;76.28
66594;DHT22;53450;42.584;23.366;2023-02-11T01:43:37;-9.16;76.11
66594;DHT22;53450;42.584;23.366;2023-02-11T01:48:50;-9.17;76.57
66594;DHT22;53450;42.584;23.366;2023-02-11T01:54:06;-9.16;77.26
66594;DHT22;53450;42.584;23.366;2023-02-11T01:56:54;-9.19;76.60
66594;DHT22;53450;42.584;23.366;2023-02-11T01:59:47;-9.16;76.48
66594;DHT22;53450;42.584;23.366;2023-02-11T02:02:20;-9.17;76.37
66594;DHT22;53450;42.584;23.366;2023-02-11T02:05:09;-9.26;76.78
66594;DHT22;53450;42.584;23.366;2023-02-11T02:07:48;-9.26;77.08
66594;DHT22;53450;42.584;23.366;2023-02-11T02:10:18;-9.27;76.71
66594;DHT22;53450;42.584;23.366;2023-02-11T02:12:45;-9.20;77.57
66594;DHT22;53450;42.584;23.366;2023-02-11T02:15:38;-9.19;76.51
66594;DHT22;53450;42.584;23.366;2023-02-11T02:21:07;-9.22;76.30
66594;DHT22;53450;42.584;23.366;2023-02-11T02:32:57;-9.55;77.20
66594;DHT22;53450;42.584;23.366;2023-02-11T02:35:45;-9.54;77.94
66594;DHT22;53450;42.584;23.366;2023-02-11T02:38:22;-9.44;77.48
66594;DHT22;53450;42.584;23.366;2023-02-11T02:40:52;-9.44;77.16
66594;DHT22;53450;42.584;23.366;2023-02-11T02:43:21;-9.43;77.45
66594;DHT22;53450;42.584;23.366;2023-02-11T02:45:47;-9.46;77.07
66594;DHT22;53450;42.584;23.366;2023-02-11T02:48:30;-9.61;77.14
66594;DHT22;53450;42.584;23.366;2023-02-11T02:53:57;-9.79;78.01
66594;DHT22;53450;42.584;23.366;2023-02-11T03:06:16;-9.44;78.20
66594;DHT22;53450;42.584;23.366;2023-02-11T03:08:44;-9.58;77.66
66594;DHT22;53450;42.584;23.366;2023-02-11T03:11:11;-9.62;77.96
66594;DHT22;53450;42.584;23.366;2023-02-11T03:13:40;-9.64;77.95
66594;DHT22;53450;42.584;23.366;2023-02-11T03:16:32;-9.68;77.96
66594;DHT22;53450;42.584;23.366;2023-02-11T03:19:33;-9.69;78.38
66594;DHT22;53450;42.584;23.366;2023-02-11T03:22:01;-9.72;78.51
66594;DHT22;53450;42.584;23.366;2023-02-11T03:24:32;-9.81;78.47
66594;DHT22;53450;42.584;23.366;2023-02-11T03:27:11;-9.79;78.69
66594;DHT22;53450;42.584;23.366;2023-02-11T03:30:04;-9.72;78.64
66594;DHT22;53450;42.584;23.366;2023-02-11T03:33:00;-9.68;78.71
66594;DHT22;53450;42.584;23.366;2023-02-11T03:35:50;-9.69;78.01
66594;DHT22;53450;42.584;23.366;2023-02-11T03:38:21;-9.65;78.42
66594;DHT22;53450;42.584;23.366;2023-02-11T03:40:49;-9.75;77.89
66594;DHT22;53450;42.584;23.366;2023-02-11T03:43:21;-9.76;78.41
66594;DHT22;53450;42.584;23.366;2023-02-11T03:45:48;-9.81;77.88
66594;DHT22;53450;42.584;23.366;2023-02-11T03:48:40;-9.83;77.76
66594;DHT22;53450;42.584;23.366;2023-02-11T03:51:06;-9.74;77.83
66594;DHT22;53450;42.584;23.366;2023-02-11T03:53:32;-9.82;77.76
66594;DHT22;53450;42.584;23.366;2023-02-11T03:56:00;-9.88;78.52
66594;DHT22;53450;42.584;23.366;2023-02-11T03:58:27;-9.79;78.67
66594;DHT22;53450;42.584;23.366;2023-02-11T04:00:52;-9.82;78.67
66594;DHT22;53450;42.584;23.366;2023-02-11T04:03:18;-9.83;78.61
66594;DHT22;53450;42.584;23.366;2023-02-11T04:05:44;-9.88;78.42
66594;DHT22;53450;42.584;23.366;2023-02-11T04:08:09;-9.86;78.48
66594;DHT22;53450;42.584;23.366;2023-02-11T04:10:35;-9.83;78.78
66594;DHT22;53450;42.584;23.366;2023-02-11T04:13:01;-9.78;78.70
66594;DHT22;53450;42.584;23.366;2023-02-11T04:15:26;-9.78;78.65
66594;DHT22;53450;42.584;23.366;2023-02-11T04:17:52;-9.76;78.82
66594;DHT22;53450;42.584;23.366;2023-02-11T04:20:18;-9.78;78.60
66594;DHT22;53450;42.584;23.366;2023-02-11T04:22:43;-9.82;78.56
66594;DHT22;53450;42.584;23.366;2023-02-11T04:25:09;-9.82;78.57
66594;DHT22;53450;42.584;23.366;2023-02-11T04:27:35;-9.79;78.46
66594;DHT22;53450;42.584;23.366;2023-02-11T04:30:01;-9.88;77.87
66594;DHT22;53450;42.584;23.366;2023-02-11T04:32:26;-9.94;78.27
66594;DHT22;53450;42.584;23.366;2023-02-11T04:34:52;-9.98;78.33
66594;DHT22;53450;42.584;23.366;2023-02-11T04:37:19;-10.02;78.74
66594;DHT22;53450;42.584;23.366;2023-02-11T04:39:44;-10.13;79.35
66594;DHT22;53450;42.584;23.366;2023-02-11T04:42:10;-9.96;79.67
66594;DHT22;53450;42.584;23.366;2023-02-11T04:44:36;-9.86;77.69
66594;DHT22;53450;42.584;23.366;2023-02-11T04:47:02;-9.96;77.93
66594;DHT22;53450;42.584;23.366;2023-02-11T04:49:27;-9.99;78.35
66594;DHT22;53450;42.584;23.366;2023-02-11T04:51:53;-10.09;78.43
66594;DHT22;53450;42.584;23.366;2023-02-11T04:54:18;-10.13;78.72
66594;DHT22;53450;42.584;23.366;2023-02-11T04:56:44;-10.15;78.70
66594;DHT22;53450;42.584;23.366;2023-02-11T04:59:35;-10.15;78.48
66594;DHT22;53450;42.584;23.366;2023-02-11T05:02:25;-10.16;79.22
66594;DHT22;53450;42.584;23.366;2023-02-11T05:04:51;-10.10;79.25
66594;DHT22;53450;42.584;23.366;2023-02-11T05:07:16;-10.07;79.40
66594;DHT22;53450;42.584;23.366;2023-02-11T05:10:06;-9.98;79.28
66594;DHT22;53450;42.584;23.366;2023-02-11T05:12:32;-9.94;78.76
66594;DHT22;53450;42.584;23.366;2023-02-11T05:14:58;-9.95;78.48
66594;DHT22;53450;42.584;23.366;2023-02-11T05:17:23;-9.86;78.58
66594;DHT22;53450;42.584;23.366;2023-02-11T05:19:49;-9.85;78.10
66594;DHT22;53450;42.584;23.366;2023-02-11T05:22:14;-9.92;77.93
66594;DHT22;53450;42.584;23.366;2023-02-11T05:24:40;-9.86;78.03
66594;DHT22;53450;42.584;23.366;2023-02-11T05:27:05;-9.82;78.41
66594;DHT22;53450;42.584;23.366;2023-02-11T05:29:31;-9.85;77.97
66594;DHT22;53450;42.584;23.366;2023-02-11T05:31:58;-9.78;78.49
66594;DHT22;53450;42.584;23.366;2023-02-11T05:34:24;-9.74;77.60
66594;DHT22;53450;42.584;23.366;2023-02-11T05:36:49;-9.68;78.11
66594;DHT22;53450;42.584;23.366;2023-02-11T05:39:15;-9.71;77.42
66594;DHT22;53450;42.584;23.366;2023-02-11T05:41:47;-9.67;77.50
66594;DHT22;53450;42.584;23.366;2023-02-11T05:44:12;-9.71;77.52
66594;DHT22;53450;42.584;23.366;2023-02-11T05:46:38;-9.69;77.85
66594;DHT22;53450;42.584;23.366;2023-02-11T05:49:03;-9.67;78.01
66594;DHT22;53450;42.584;23.366;2023-02-11T05:51:29;-9.68;77.23
66594;DHT22;53450;42.584;23.366;2023-02-11T05:53:54;-9.71;77.68
66594;DHT22;53450;42.584;23.366;2023-02-11T05:56:20;-9.71;78.13
66594;DHT22;53450;42.584;23.366;2023-02-11T05:58:45;-9.55;77.87
66594;DHT22;53450;42.584;23.366;2023-02-11T06:01:11;-9.44;76.84
66594;DHT22;53450;42.584;23.366;2023-02-11T06:03:36;-9.47;77.24
66594;DHT22;53450;42.584;23.366;2023-02-11T06:06:27;-9.46;76.96
66594;DHT22;53450;42.584;23.366;2023-02-11T06:08:53;-9.37;77.04
66594;DHT22;53450;42.584;23.366;2023-02-11T06:11:18;-9.27;76.90
66594;DHT22;53450;42.584;23.366;2023-02-11T06:13:44;-9.16;76.71
66594;DHT22;53450;42.584;23.366;2023-02-11T06:16:10;-9.07;76.71
66594;DHT22;53450;42.584;23.366;2023-02-11T06:18:35;-9.02;76.47
66594;DHT22;53450;42.584;23.366;2023-02-11T06:21:05;-8.92;76.44
66594;DHT22;53450;42.584;23.366;2023-02-11T06:23:31;-8.76;76.31
66594;DHT22;53450;42.584;23.366;2023-02-11T06:26:04;-8.65;76.37
66594;DHT22;53450;42.584;23.366;2023-02-11T06:28:30;-8.48;75.71
66594;DHT22;53450;42.584;23.366;2023-02-11T06:30:57;-8.30;75.02
66594;DHT22;53450;42.584;23.366;2023-02-11T06:33:22;-8.24;74.81
66594;DHT22;53450;42.584;23.366;2023-02-11T06:35:49;-8.16;75.36
66594;DHT22;53450;42.584;23.366;2023-02-11T06:38:14;-7.95;75.34
66594;DHT22;53450;42.584;23.366;2023-02-11T06:40:50;-7.76;74.35
66594;DHT22;53450;42.584;23.366;2023-02-11T06:43:16;-7.54;73.36
66594;DHT22;53450;42.584;23.366;2023-02-11T06:45:41;-7.32;72.57
66594;DHT22;53450;42.584;23.366;2023-02-11T06:48:07;-7.26;72.48
66594;DHT22;53450;42.584;23.366;2023-02-11T06:50:33;-7.07;72.39
66594;DHT22;53450;42.584;23.366;2023-02-11T06:52:59;-7.03;72.43
66594;DHT22;53450;42.584;23.366;2023-02-11T06:55:25;-6.76;71.82
66594;DHT22;53450;42.584;23.366;2023-02-11T06:57:50;-6.56;71.34
66594;DHT22;53450;42.584;23.366;2023-02-11T07:00:16;-6.50;70.87
66594;DHT22;53450;42.584;23.366;2023-02-11T07:02:42;-6.48;71.00
66594;DHT22;53450;42.584;23.366;2023-02-11T07:05:08;-6.32;69.88
66594;DHT22;53450;42.584;23.366;2023-02-11T07:07:33;-6.31;69.52
66594;DHT22;53450;42.584;23.366;2023-02-11T07:09:59;-6.34;69.18
66594;DHT22;53450;42.584;23.366;2023-02-11T07:12:25;-6.38;69.33
66594;DHT22;53450;42.584;23.366;2023-02-11T07:15:16;-6.17;68.95
66594;DHT22;53450;42.584;23.366;2023-02-11T07:17:47;-6.11;69.26
66594;DHT22;53450;42.584;23.366;2023-02-11T07:20:15;-5.97;68.43
66594;DHT22;53450;42.584;23.366;2023-02-11T07:22:41;-5.83;68.18
66594;DHT22;53450;42.584;23.366;2023-02-11T07:25:07;-5.73;68.48
66594;DHT22;53450;42.584;23.366;2023-02-11T07:27:32;-5.72;67.32
66594;DHT22;53450;42.584;23.366;2023-02-11T07:29:58;-5.63;68.17
66594;DHT22;53450;42.584;23.366;2023-02-11T07:32:26;-5.45;67.47
66594;DHT22;53450;42.584;23.366;2023-02-11T07:34:52;-5.27;67.04
66594;DHT22;53450;42.584;23.366;2023-02-11T07:37:18;-5.24;67.26
66594;DHT22;53450;42.584;23.366;2023-02-11T07:39:44;-5.05;67.19
66594;DHT22;53450;42.584;23.366;2023-02-11T07:42:09;-4.93;66.83
66594;DHT22;53450;42.584;23.366;2023-02-11T07:44:35;-4.87;65.43
66594;DHT22;53450;42.584;23.366;2023-02-11T07:47:03;-4.87;65.85
66594;DHT22;53450;42.584;23.366;2023-02-11T07:49:29;-4.76;66.49
66594;DHT22;53450;42.584;23.366;2023-02-11T07:51:54;-4.63;66.47
66594;DHT22;53450;42.584;23.366;2023-02-11T07:54:20;-4.48;66.18
66594;DHT22;53450;42.584;23.366;2023-02-11T07:56:46;-4.42;64.61
66594;DHT22;53450;42.584;23.366;2023-02-11T07:59:11;-4.38;64.91
66594;DHT22;53450;42.584;23.366;2023-02-11T08:01:37;-4.26;64.07
66594;DHT22;53450;42.584;23.366;2023-02-11T08:04:03;-4.17;63.86
66594;DHT22;53450;42.584;23.366;2023-02-11T08:06:31;-4.18;64.36
66594;DHT22;53450;42.584;23.366;2023-02-11T08:08:57;-4.09;64.61
66594;DHT22;53450;42.584;23.366;2023-02-11T08:11:27;-3.93;64.81
66594;DHT22;53450;42.584;23.366;2023-02-11T08:13:54;-3.93;64.99
66594;DHT22;53450;42.584;23.366;2023-02-11T08:19:14;-3.55;64.23
66594;DHT22;53450;42.584;23.366;2023-02-11T08:22:06;-3.56;63.06
66594;DHT22;53450;42.584;23.366;2023-02-11T08:24:31;-3.49;62.86
66594;DHT22;53450;42.584;23.366;2023-02-11T08:26:57;-3.46;62.83
66594;DHT22;53450;42.584;23.366;2023-02-11T08:29:22;-3.36;62.60
66594;DHT22;53450;42.584;23.366;2023-02-11T08:31:50;-3.32;61.94
66594;DHT22;53450;42.584;23.366;2023-02-11T08:34:16;-3.36;62.72
66594;DHT22;53450;42.584;23.366;2023-02-11T08:36:45;-3.46;62.08
66594;DHT22;53450;42.584;23.366;2023-02-11T08:39:15;-3.45;62.34
66594;DHT22;53450;42.584;23.366;2023-02-11T08:41:45;-3.27;61.99
66594;DHT22;53450;42.584;23.366;2023-02-11T08:44:11;-3.35;62.30
66594;DHT22;53450;42.584;23.366;2023-02-11T08:46:39;-3.39;62.63
66594;DHT22;53450;42.584;23.366;2023-02-11T08:49:05;-3.20;62.46
66594;DHT22;53450;42.584;23.366;2023-02-11T08:52:05;-3.12;62.28
66594;DHT22;53450;42.584;23.366;2023-02-11T08:54:30;-3.15;63.10
66594;DHT22;53450;42.584;23.366;2023-02-11T08:56:56;-3.01;61.91
66594;DHT22;53450;42.584;23.366;2023-02-11T08:59:22;-2.98;62.17
66594;DHT22;53450;42.584;23.366;2023-02-11T09:01:48;-2.88;61.62
66594;DHT22;53450;42.584;23.366;2023-02-11T09:04:16;-2.87;60.98
66594;DHT22;53450;42.584;23.366;2023-02-11T09:06:42;-2.87;61.62
66594;DHT22;53450;42.584;23.366;2023-02-11T09:09:13;-2.46;60.91
66594;DHT22;53450;42.584;23.366;2023-02-11T09:11:43;-2.67;59.82
66594;DHT22;53450;42.584;23.366;2023-02-11T09:14:16;-2.73;60.24
66594;DHT22;53450;42.584;23.366;2023-02-11T09:16:42;-2.74;60.56
66594;DHT22;53450;42.584;23.366;2023-02-11T09:19:08;-2.73;60.77
66594;DHT22;53450;42.584;23.366;2023-02-11T09:21:34;-2.61;60.45
66594;DHT22;53450;42.584;23.366;2023-02-11T09:23:59;-2.63;60.11
66594;DHT22;53450;42.584;23.366;2023-02-11T09:26:27;-2.53;60.29
66594;DHT22;53450;42.584;23.366;2023-02-11T09:28:53;-2.47;61.12
66594;DHT22;53450;42.584;23.366;2023-02-11T09:31:25;-2.50;60.22
66594;DHT22;53450;42.584;23.366;2023-02-11T09:33:54;-2.38;60.79
66594;DHT22;53450;42.584;23.366;2023-02-11T09:36:22;-2.19;59.51
66594;DHT22;53450;42.584;23.366;2023-02-11T09:38:50;-2.13;59.26
66594;DHT22;53450;42.584;23.366;2023-02-11T09:43:48;-2.13;61.07
66594;DHT22;53450;42.584;23.366;2023-02-11T09:46:16;-2.01;60.63
66594;DHT22;53450;42.584;23.366;2023-02-11T09:48:44;-1.97;59.58
66594;DHT22;53450;42.584;23.366;2023-02-11T09:54:01;-1.77;59.51
66594;DHT22;53450;42.584;23.366;2023-02-11T09:56:28;-1.77;59.69
66594;DHT22;53450;42.584;23.366;2023-02-11T09:58:53;-1.68;60.44
66594;DHT22;53450;42.584;23.366;2023-02-11T10:01:48;-1.59;60.60
66594;DHT22;53450;42.584;23.366;2023-02-11T10:06:48;-1.44;59.44
66594;DHT22;53450;42.584;23.366;2023-02-11T10:19:41;-0.79;58.14
66594;DHT22;53450;42.584;23.366;2023-02-11T10:24:56;-0.70;57.47
66594;DHT22;53450;42.584;23.366;2023-02-11T10:27:33;-0.68;57.37
66594;DHT22;53450;42.584;23.366;2023-02-11T10:30:08;-0.60;57.13
66594;DHT22;53450;42.584;23.366;2023-02-11T10:33:04;-0.45;56.75
66594;DHT22;53450;42.584;23.366;2023-02-11T10:35:32;-0.21;56.32
66594;DHT22;53450;42.584;23.366;2023-02-11T10:37:58;-0.30;55.13
66594;DHT22;53450;42.584;23.366;2023-02-11T10:40:26;-0.14;55.92
66594;DHT22;53450;42.584;23.366;2023-02-11T10:43:20;0.09;55.35
66594;DHT22;53450;42.584;23.366;2023-02-11T10:45:50;0.17;53.90
66594;DHT22;53450;42.584;23.366;2023-02-11T10:48:36;0.37;53.88
66594;DHT22;53450;42.584;23.366;2023-02-11T10:53:35;0.49;54.27
66594;DHT22;53450;42.584;23.366;2023-02-11T10:56:02;0.62;53.73
66594;DHT22;53450;42.584;23.366;2023-02-11T10:58:44;0.77;53.66
66594;DHT22;53450;42.584;23.366;2023-02-11T11:01:11;0.67;52.44
66594;DHT22;53450;42.584;23.366;2023-02-11T11:03:40;0.81;52.52
66594;DHT22;53450;42.584;23.366;2023-02-11T11:06:10;0.90;52.83
66594;DHT22;53450;42.584;23.366;2023-02-11T11:08:47;0.70;51.87
66594;DHT22;53450;42.584;23.366;2023-02-11T11:11:21;0.90;52.07
66594;DHT22;53450;42.584;23.366;2023-02-11T11:16:33;1.13;50.58
66594;DHT22;53450;42.584;23.366;2023-02-11T11:24:19;0.84;49.50
66594;DHT22;53450;42.584;23.366;2023-02-11T11:29:18;0.70;49.92
66594;DHT22;53450;42.584;23.366;2023-02-11T11:31:53;0.97;50.46
66594;DHT22;53450;42.584;23.366;2023-02-11T11:36:54;1.39;49.27
66594;DHT22;53450;42.584;23.366;2023-02-11T11:39:23;1.52;49.21
66594;DHT22;53450;42.584;23.366;2023-02-11T11:41:54;1.31;48.40
66594;DHT22;53450;42.584;23.366;2023-02-11T11:44:22;1.30;48.35
66594;DHT22;53450;42.584;23.366;2023-02-11T11:46:52;1.17;48.40
66594;DHT22;53450;42.584;23.366;2023-02-11T11:49:31;0.98;48.59
66594;DHT22;53450;42.584;23.366;2023-02-11T11:52:43;0.86;49.12
66594;DHT22;53450;42.584;23.366;2023-02-11T11:55:27;0.86;50.92
66594;DHT22;53450;42.584;23.366;2023-02-11T11:57:55;0.80;49.75
66594;DHT22;53450;42.584;23.366;2023-02-11T12:00:43;0.79;50.29
66594;DHT22;53450;42.584;23.366;2023-02-11T12:06:54;0.76;51.22
66594;DHT22;53450;42.584;23.366;2023-02-11T12:14:58;0.67;50.36
66594;DHT22;53450;42.584;23.366;2023-02-11T12:26:21;0.67;51.92
66594;DHT22;53450;42.584;23.366;2023-02-11T12:43:21;0.96;50.81
66594;DHT22;53450;42.584;23.366;2023-02-11T12:54:21;1.13;50.77
66594;DHT22;53450;42.584;23.366;2023-02-11T12:57:05;1.13;50.64
66594;DHT22;53450;42.584;23.366;2023-02-11T13:01:58;1.14;49.92
66594;DHT22;53450;42.584;23.366;2023-02-11T13:04:55;1.23;48.91
66594;DHT22;53450;42.584;23.366;2023-02-11T13:07:49;1.31;50.09
66594;DHT22;53450;42.584;23.366;2023-02-11T13:12:49;1.28;48.56
66594;DHT22;53450;42.584;23.366;2023-02-11T13:15:35;1.27;48.48
66594;DHT22;53450;42.584;23.366;2023-02-11T13:18:11;1.30;48.02
66594;DHT22;53450;42.584;23.366;2023-02-11T13:20:46;1.32;47.36
66594;DHT22;53450;42.584;23.366;2023-02-11T13:23:24;1.31;47.14
66594;DHT22;53450;42.584;23.366;2023-02-11T13:31:30;1.32;48.88
66594;DHT22;53450;42.584;23.366;2023-02-11T13:33:56;1.27;48.19
66594;DHT22;53450;42.584;23.366;2023-02-11T13:36:23;1.27;48.77
66594;DHT22;53450;42.584;23.366;2023-02-11T13:38:56;1.23;48.96
66594;DHT22;53450;42.584;23.366;2023-02-11T13:41:29;1.31;48.37
66594;DHT22;53450;42.584;23.366;2023-02-11T13:44:21;1.30;48.53
66594;DHT22;53450;42.584;23.366;2023-02-11T13:47:00;1.37;48.40
66594;DHT22;53450;42.584;23.366;2023-02-11T13:49:32;1.31;49.19
66594;DHT22;53450;42.584;23.366;2023-02-11T13:52:02;1.31;49.76
66594;DHT22;53450;42.584;23.366;2023-02-11T13:57:20;1.23;47.79
66594;DHT22;53450;42.584;23.366;2023-02-11T14:02:31;1.24;48.22
66594;DHT22;53450;42.584;23.366;2023-02-11T14:05:23;1.23;48.02
66594;DHT22;53450;42.584;23.366;2023-02-11T14:23:52;1.21;48.32
66594;DHT22;53450;42.584;23.366;2023-02-11T14:29:11;1.28;48.88
66594;DHT22;53450;42.584;23.366;2023-02-11T14:42:40;1.21;48.90
66594;DHT22;53450;42.584;23.366;2023-02-11T14:45:08;1.14;49.08
66594;DHT22;53450;42.584;23.366;2023-02-11T14:48:36;1.13;49.03
66594;DHT22;53450;42.584;23.366;2023-02-11T14:50:53;0.98;49.50
66594;DHT22;53450;42.584;23.366;2023-02-11T14:53:22;0.96;49.75
66594;DHT22;53450;42.584;23.366;2023-02-11T14:55:53;0.94;49.17
66594;DHT22;53450;42.584;23.366;2023-02-11T14:58:25;0.91;49.04
66594;DHT22;53450;42.584;23.366;2023-02-11T15:03:37;0.84;49.78
66594;DHT22;53450;42.584;23.366;2023-02-11T15:06:04;0.79;49.60
66594;DHT22;53450;42.584;23.366;2023-02-11T15:08:31;0.76;50.17
66594;DHT22;53450;42.584;23.366;2023-02-11T15:11:00;0.72;50.05
66594;DHT22;53450;42.584;23.366;2023-02-11T15:13:28;0.75;50.58
66594;DHT22;53450;42.584;23.366;2023-02-11T15:16:07;0.70;51.54
66594;DHT22;53450;42.584;23.366;2023-02-11T15:18:40;0.69;52.05
66594;DHT22;53450;42.584;23.366;2023-02-11T15:21:06;0.69;52.88
66594;DHT22;53450;42.584;23.366;2023-02-11T15:23:32;0.62;52.79
66594;DHT22;53450;42.584;23.366;2023-02-11T15:25:58;0.56;53.03
66594;DHT22;53450;42.584;23.366;2023-02-11T15:28:31;0.44;54.31
66594;DHT22;53450;42.584;23.366;2023-02-11T15:31:00;0.37;54.54
66594;DHT22;53450;42.584;23.366;2023-02-11T15:33:31;0.29;53.59
66594;DHT22;53450;42.584;23.366;2023-02-11T15:35:58;0.21;54.27
66594;DHT22;53450;42.584;23.366;2023-02-11T15:38:24;0.19;54.49
66594;DHT22;53450;42.584;23.366;2023-02-11T15:41:01;0.04;55.46
66594;DHT22;53450;42.584;23.366;2023-02-11T15:43:44;-0.03;56.32
66594;DHT22;53450;42.584;23.366;2023-02-11T15:46:10;-0.09;56.25
66594;DHT22;53450;42.584;23.366;2023-02-11T15:48:42;-0.13;56.54
66594;DHT22;53450;42.584;23.366;2023-02-11T15:53:39;-0.38;57.30
66594;DHT22;53450;42.584;23.366;2023-02-11T15:56:17;-0.51;57.80
66594;DHT22;53450;42.584;23.366;2023-02-11T15:58:46;-0.84;59.39
66594;DHT22;53450;42.584;23.366;2023-02-11T16:01:14;-1.23;60.88
66594;DHT22;53450;42.584;23.366;2023-02-11T16:03:41;-1.49;61.43
66594;DHT22;53450;42.584;23.366;2023-02-11T16:06:23;-1.68;62.41
66594;DHT22;53450;42.584;23.366;2023-02-11T16:09:03;-1.87;62.99
66594;DHT22;53450;42.584;23.366;2023-02-11T16:11:33;-2.05;63.82
66594;DHT22;53450;42.584;23.366;2023-02-11T16:14:01;-2.21;64.33
66594;DHT22;53450;42.584;23.366;2023-02-11T16:16:32;-2.33;64.41
66594;DHT22;53450;42.584;23.366;2023-02-11T16:19:00;-2.38;65.03
66594;DHT22;53450;42.584;23.366;2023-02-11T16:21:30;-2.36;63.80
66594;DHT22;53450;42.584;23.366;2023-02-11T16:24:29;-2.46;64.75
66594;DHT22;53450;42.584;23.366;2023-02-11T16:27:40;-2.61;64.54
66594;DHT22;53450;42.584;23.366;2023-02-11T16:30:26;-2.66;64.44
66594;DHT22;53450;42.584;23.366;2023-02-11T16:32:53;-2.66;64.67
66594;DHT22;53450;42.584;23.366;2023-02-11T16:35:19;-2.74;65.06
66594;DHT22;53450;42.584;23.366;2023-02-11T16:37:45;-2.70;64.68
66594;DHT22;53450;42.584;23.366;2023-02-11T16:40:11;-2.64;64.75
66594;DHT22;53450;42.584;23.366;2023-02-11T16:42:37;-2.66;64.56
66594;DHT22;53450;42.584;23.366;2023-02-11T16:45:03;-2.74;64.52
66594;DHT22;53450;42.584;23.366;2023-02-11T16:47:29;-2.81;64.95
66594;DHT22;53450;42.584;23.366;2023-02-11T16:49:57;-2.88;65.17
66594;DHT22;53450;42.584;23.366;2023-02-11T16:52:24;-2.88;65.05
66594;DHT22;53450;42.584;23.366;2023-02-11T16:54:49;-3.07;65.73
66594;DHT22;53450;42.584;23.366;2023-02-11T16:57:18;-3.12;65.84
66594;DHT22;53450;42.584;23.366;2023-02-11T16:59:44;-3.23;65.89
66594;DHT22;53450;42.584;23.366;2023-02-11T17:02:26;-3.27;65.74
66594;DHT22;53450;42.584;23.366;2023-02-11T17:04:54;-3.32;65.57
66594;DHT22;53450;42.584;23.366;2023-02-11T17:07:20;-3.40;66.09
66594;DHT22;53450;42.584;23.366;2023-02-11T17:09:46;-3.43;66.37
66594;DHT22;53450;42.584;23.366;2023-02-11T17:12:11;-3.42;66.03
66594;DHT22;53450;42.584;23.366;2023-02-11T17:14:37;-3.49;65.94
66594;DHT22;53450;42.584;23.366;2023-02-11T17:17:02;-3.40;65.52
66594;DHT22;53450;42.584;23.366;2023-02-11T17:19:28;-3.43;65.69
66594;DHT22;53450;42.584;23.366;2023-02-11T17:21:54;-3.62;65.93
66594;DHT22;53450;42.584;23.366;2023-02-11T17:24:20;-3.67;66.07
66594;DHT22;53450;42.584;23.366;2023-02-11T17:26:47;-3.76;66.59
66594;DHT22;53450;42.584;23.366;2023-02-11T17:29:18;-3.81;66.68
66594;DHT22;53450;42.584;23.366;2023-02-11T17:31:44;-3.84;66.86
66594;DHT22;53450;42.584;23.366;2023-02-11T17:34:09;-3.90;66.80
66594;DHT22;53450;42.584;23.366;2023-02-11T17:36:35;-3.91;66.85
66594;DHT22;53450;42.584;23.366;2023-02-11T17:39:01;-3.87;66.68
66594;DHT22;53450;42.584;23.366;2023-02-11T17:41:27;-3.90;67.08
66594;DHT22;53450;42.584;23.366;2023-02-11T17:43:53;-3.97;67.30
66594;DHT22;53450;42.584;23.366;2023-02-11T17:46:21;-3.98;67.34
66594;DHT22;53450;42.584;23.366;2023-02-11T17:48:47;-3.90;66.93
66594;DHT22;53450;42.584;23.366;2023-02-11T17:51:30;-3.74;65.74
66594;DHT22;53450;42.584;23.366;2023-02-11T17:53:58;-3.86;65.66
66594;DHT22;53450;42.584;23.366;2023-02-11T17:56:24;-3.86;65.75
66594;DHT22;53450;42.584;23.366;2023-02-11T17:58:49;-3.77;65.20
66594;DHT22;53450;42.584;23.366;2023-02-11T18:01:15;-3.84;65.77
66594;DHT22;53450;42.584;23.366;2023-02-11T18:03:41;-3.94;66.22
66594;DHT22;53450;42.584;23.366;2023-02-11T18:06:06;-4.04;66.37
66594;DHT22;53450;42.584;23.366;2023-02-11T18:08:33;-4.09;66.95
66594;DHT22;53450;42.584;23.366;2023-02-11T18:10:59;-4.09;67.39
66594;DHT22;53450;42.584;23.366;2023-02-11T18:13:26;-4.07;67.32
66594;DHT22;53450;42.584;23.366;2023-02-11T18:16:18;-4.19;68.09
66594;DHT22;53450;42.584;23.366;2023-02-11T18:19:09;-4.28;68.23
66594;DHT22;53450;42.584;23.366;2023-02-11T18:21:36;-4.36;68.28